Time,TemperatureF,DewpointF,PressureIn,WindDirection,WindDirectionDegrees,WindSpeedMPH,WindSpeedGustMPH,Humidity,HourlyPrecipIn,Conditions,Clouds,dailyrainin,SoftwareType,DateUTC
2013-08-05 00:02:00,54.0,54.0,30.07,WNW,296,8.0,14.0,100,0.00,,,0.00,,2013-08-05 07:02:00,
2013-08-05 00:12:00,55.0,55.0,30.07,NW,323,6.0,9.0,100,0.00,,,0.00,,2013-08-05 07:12:00,
2013-08-05 00:32:00,54.0,54.0,30.07,NNW,335,4.0,9.0,100,0.00,,,0.00,,2013-08-05 07:32:00,
2013-08-05 00:43:00,54.0,54.0,30.07,NW,314,5.0,9.0,100,0.00,,,0.00,,2013-08-05 07:43:00,
2013-08-05 00:52:00,54.0,54.0,30.07,NW,304,5.0,9.0,100,0.00,,,0.00,,2013-08-05 07:52:00,
2013-08-05 01:02:00,54.0,54.0,30.07,NW,304,5.0,9.0,100,0.00,,,0.00,,2013-08-05 08:02:00,
2013-08-05 01:12:00,54.0,54.0,30.08,WNW,298,7.0,10.0,100,0.00,,,0.00,,2013-08-05 08:12:00,
2013-08-05 01:33:00,54.0,54.0,30.08,NW,320,8.0,11.0,100,0.00,,,0.00,,2013-08-05 08:33:00,
2013-08-05 01:44:00,54.0,54.0,30.08,NNW,336,4.0,9.0,100,0.00,,,0.00,,2013-08-05 08:44:00,
2013-08-05 01:52:00,54.0,54.0,30.08,NNW,336,4.0,9.0,100,0.00,,,0.00,,2013-08-05 08:52:00,
2013-08-05 02:13:00,53.0,53.0,30.07,NW,310,7.0,9.0,100,0.00,,,0.00,,2013-08-05 09:13:00,
2013-08-05 02:33:00,53.0,53.0,30.07,NW,310,5.0,8.0,100,0.00,,,0.00,,2013-08-05 09:33:00,
2013-08-05 02:43:00,53.0,53.0,30.07,WNW,298,4.0,8.0,100,0.00,,,0.00,,2013-08-05 09:43:00,
2013-08-05 02:52:00,53.0,53.0,30.07,WNW,300,4.0,5.0,100,0.00,,,0.00,,2013-08-05 09:52:00,
2013-08-05 03:02:00,53.0,53.0,30.07,WNW,300,4.0,5.0,100,0.00,,,0.00,,2013-08-05 10:02:00,
2013-08-05 03:13:00,53.0,53.0,30.07,NW,310,4.0,8.0,100,0.00,,,0.00,,2013-08-05 10:13:00,
2013-08-05 03:22:00,53.0,53.0,30.07,NW,310,4.0,8.0,100,0.00,,,0.00,,2013-08-05 10:22:00,
2013-08-05 03:32:00,53.0,53.0,30.07,WNW,296,6.0,8.0,100,0.00,,,0.00,,2013-08-05 10:32:00,
2013-08-05 03:52:00,53.0,53.0,30.07,WNW,298,5.0,8.0,100,0.00,,,0.00,,2013-08-05 10:52:00,
2013-08-05 04:02:00,53.0,53.0,30.07,NW,315,5.0,7.0,100,0.00,,,0.00,,2013-08-05 11:02:00,
2013-08-05 04:22:00,53.0,53.0,30.06,WNW,300,6.0,10.0,100,0.00,,,0.00,,2013-08-05 11:22:00,
2013-08-05 04:33:00,53.0,53.0,30.07,WNW,300,4.0,6.0,100,0.00,,,0.00,,2013-08-05 11:33:00,
2013-08-05 04:45:00,53.0,53.0,30.07,NW,308,4.0,6.0,100,0.00,,,0.00,,2013-08-05 11:45:00,
2013-08-05 04:53:00,53.0,53.0,30.07,NW,308,4.0,6.0,100,0.00,,,0.00,,2013-08-05 11:53:00,
2013-08-05 05:03:00,53.0,53.0,30.07,NNW,340,3.0,6.0,100,0.00,,,0.00,,2013-08-05 12:03:00,
2013-08-05 05:13:00,53.0,53.0,30.08,NW,319,3.0,6.0,100,0.00,,,0.00,,2013-08-05 12:13:00,
2013-08-05 06:02:00,53.0,53.0,30.07,North,350,5.0,6.0,100,0.00,,,0.00,,2013-08-05 13:02:00,
2013-08-05 06:13:00,53.0,53.0,30.08,NW,316,2.0,7.0,100,0.00,,,0.00,,2013-08-05 13:13:00,
2013-08-05 06:21:00,53.0,53.0,30.08,NW,316,2.0,7.0,100,0.00,,,0.00,,2013-08-05 13:21:00,
2013-08-05 06:33:00,54.0,54.0,30.08,NNW,338,4.0,7.0,100,0.00,,,0.00,,2013-08-05 13:33:00,
2013-08-05 06:43:00,54.0,54.0,30.08,NNW,332,6.0,13.0,100,0.00,,,0.00,,2013-08-05 13:43:00,
2013-08-05 06:52:00,54.0,54.0,30.08,NNW,332,6.0,13.0,100,0.00,,,0.00,,2013-08-05 13:52:00,
2013-08-05 07:03:00,54.0,54.0,30.08,NNW,329,4.0,10.0,100,0.00,,,0.00,,2013-08-05 14:03:00,
2013-08-05 07:13:00,54.0,54.0,30.08,NNW,333,7.0,11.0,100,0.00,,,0.00,,2013-08-05 14:13:00,
2013-08-05 07:21:00,54.0,54.0,30.08,NNW,333,7.0,11.0,100,0.00,,,0.00,,2013-08-05 14:21:00,
2013-08-05 07:33:00,54.0,54.0,30.08,NNW,333,7.0,11.0,100,0.00,,,0.00,,2013-08-05 14:33:00,
2013-08-05 07:43:00,54.0,54.0,30.09,North,351,3.0,11.0,100,0.00,,,0.00,,2013-08-05 14:43:00,
2013-08-05 07:53:00,54.0,54.0,30.09,North,351,3.0,11.0,100,0.00,,,0.00,,2013-08-05 14:53:00,
2013-08-05 08:04:00,54.0,54.0,30.09,North,360,4.0,9.0,100,0.00,,,0.00,,2013-08-05 15:04:00,
2013-08-05 08:22:00,54.0,54.0,30.09,NW,311,2.0,6.0,100,0.00,,,0.00,,2013-08-05 15:22:00,
2013-08-05 08:32:00,54.0,54.0,30.09,WNW,303,5.0,11.0,100,0.00,,,0.00,,2013-08-05 15:32:00,
2013-08-05 08:52:00,54.0,54.0,30.10,NW,311,5.0,10.0,100,0.00,,,0.00,,2013-08-05 15:52:00,
2013-08-05 09:03:00,54.0,54.0,30.10,NW,311,5.0,10.0,100,0.00,,,0.00,,2013-08-05 16:03:00,
2013-08-05 09:12:00,54.0,54.0,30.10,NNW,333,8.0,12.0,100,0.00,,,0.00,,2013-08-05 16:12:00,
2013-08-05 09:22:00,54.0,54.0,30.10,NNW,333,8.0,12.0,100,0.00,,,0.00,,2013-08-05 16:22:00,
2013-08-05 09:32:00,54.0,54.0,30.10,NNW,333,8.0,12.0,100,0.00,,,0.00,,2013-08-05 16:32:00,
2013-08-05 09:43:00,54.0,54.0,30.10,NW,310,5.0,12.0,100,0.00,,,0.00,,2013-08-05 16:43:00,
2013-08-05 09:53:00,54.0,54.0,30.10,NW,310,5.0,12.0,100,0.00,,,0.00,,2013-08-05 16:53:00,
2013-08-05 10:12:00,54.0,54.0,30.10,NW,309,6.0,12.0,100,0.00,,,0.00,,2013-08-05 17:12:00,
2013-08-05 10:22:00,54.0,54.0,30.11,NW,322,9.0,14.0,100,0.00,,,0.00,,2013-08-05 17:22:00,
2013-08-05 10:32:00,54.0,54.0,30.10,NW,316,7.0,10.0,100,0.00,,,0.00,,2013-08-05 17:32:00,
2013-08-05 10:44:00,55.0,55.0,30.11,NW,315,9.0,16.0,100,0.00,,,0.00,,2013-08-05 17:44:00,
2013-08-05 11:12:00,55.0,55.0,30.11,NW,315,9.0,15.0,100,0.00,,,0.00,,2013-08-05 18:12:00,
2013-08-05 11:21:00,55.0,55.0,30.11,NW,315,9.0,15.0,100,0.00,,,0.00,,2013-08-05 18:21:00,
2013-08-05 11:32:00,55.0,55.0,30.11,NW,307,12.0,16.0,100,0.00,,,0.00,,2013-08-05 18:32:00,
2013-08-05 11:44:00,56.0,56.0,30.11,NNW,327,11.0,14.0,100,0.00,,,0.00,,2013-08-05 18:44:00,
2013-08-05 11:54:00,56.0,56.0,30.11,NNW,327,11.0,14.0,100,0.00,,,0.00,,2013-08-05 18:54:00,
2013-08-05 12:02:00,56.0,56.0,30.11,NNW,327,9.0,16.0,100,0.00,,,0.00,,2013-08-05 19:02:00,
2013-08-05 12:13:00,57.0,57.0,30.11,NW,323,11.0,16.0,100,0.00,,,0.00,,2013-08-05 19:13:00,
2013-08-05 12:33:00,57.0,57.0,30.10,WNW,298,8.0,17.0,100,0.00,,,0.00,,2013-08-05 19:33:00,
2013-08-05 12:46:00,57.0,57.0,30.10,NW,323,12.0,20.0,100,0.00,,,0.00,,2013-08-05 19:46:00,
2013-08-05 12:53:00,57.0,57.0,30.10,NW,323,12.0,20.0,100,0.00,,,0.00,,2013-08-05 19:53:00,
2013-08-05 13:13:00,57.0,57.0,30.10,NW,311,13.0,19.0,100,0.00,,,0.00,,2013-08-05 20:13:00,
2013-08-05 13:33:00,57.0,57.0,30.10,WNW,293,14.0,19.0,100,0.00,,,0.00,,2013-08-05 20:33:00,
2013-08-05 13:45:00,57.0,57.0,30.09,NW,306,12.0,20.0,100,0.00,,,0.00,,2013-08-05 20:45:00,
2013-08-05 13:52:00,57.0,57.0,30.09,NW,306,12.0,20.0,100,0.00,,,0.00,,2013-08-05 20:52:00,
2013-08-05 14:02:00,57.0,57.0,30.10,NW,312,15.0,23.0,100,0.00,,,0.00,,2013-08-05 21:02:00,
2013-08-05 14:13:00,57.0,57.0,30.09,WNW,291,16.0,20.0,100,0.00,,,0.00,,2013-08-05 21:13:00,
2013-08-05 14:32:00,58.0,58.0,30.10,NW,316,13.0,19.0,100,0.00,,,0.00,,2013-08-05 21:32:00,
2013-08-05 14:44:00,59.0,59.0,30.09,NW,306,12.0,19.0,100,0.00,,,0.00,,2013-08-05 21:44:00,
2013-08-05 14:52:00,59.0,59.0,30.09,NW,306,12.0,19.0,100,0.00,,,0.00,,2013-08-05 21:52:00,
2013-08-05 15:02:00,58.0,58.0,30.09,NW,310,14.0,23.0,100,0.00,,,0.00,,2013-08-05 22:02:00,
2013-08-05 15:43:00,58.0,58.0,30.08,West,276,15.0,23.0,100,0.00,,,0.00,,2013-08-05 22:43:00,
2013-08-05 16:02:00,58.0,58.0,30.07,WNW,296,16.0,23.0,100,0.00,,,0.00,,2013-08-05 23:02:00,
2013-08-05 16:21:00,57.0,57.0,30.07,NW,312,16.0,22.0,100,0.00,,,0.00,,2013-08-05 23:21:00,
2013-08-05 16:43:00,59.0,59.0,30.06,NW,306,10.0,17.0,100,0.00,,,0.00,,2013-08-05 23:43:00,
2013-08-05 17:02:00,58.0,58.0,30.06,West,280,11.0,22.0,100,0.00,,,0.00,,2013-08-06 00:02:00,
2013-08-05 17:13:00,58.0,58.0,30.05,WNW,300,13.0,22.0,100,0.00,,,0.00,,2013-08-06 00:13:00,
2013-08-05 17:22:00,58.0,58.0,30.05,WNW,300,13.0,22.0,100,0.00,,,0.00,,2013-08-06 00:22:00,
2013-08-05 17:32:00,58.0,58.0,30.05,WNW,298,14.0,19.0,100,0.00,,,0.00,,2013-08-06 00:32:00,
2013-08-05 17:53:00,58.0,58.0,30.04,NW,325,16.0,21.0,100,0.00,,,0.00,,2013-08-06 00:53:00,
2013-08-05 18:02:00,58.0,58.0,30.04,NW,325,16.0,21.0,100,0.00,,,0.00,,2013-08-06 01:02:00,
2013-08-05 18:13:00,58.0,58.0,30.05,WNW,292,11.0,20.0,100,0.00,,,0.00,,2013-08-06 01:13:00,
2013-08-05 18:33:00,57.0,57.0,30.04,NW,320,14.0,19.0,100,0.00,,,0.00,,2013-08-06 01:33:00,
2013-08-05 18:44:00,57.0,57.0,30.03,NW,307,14.0,18.0,100,0.00,,,0.00,,2013-08-06 01:44:00,
2013-08-05 18:52:00,57.0,57.0,30.03,NW,312,14.0,19.0,100,0.00,,,0.00,,2013-08-06 01:52:00,
2013-08-05 19:22:00,57.0,57.0,30.03,NW,323,8.0,16.0,100,0.00,,,0.00,,2013-08-06 02:22:00,
2013-08-05 19:32:00,56.0,56.0,30.03,NW,308,12.0,16.0,100,0.00,,,0.00,,2013-08-06 02:32:00,
2013-08-05 19:43:00,55.0,55.0,30.03,WNW,303,10.0,18.0,100,0.00,,,0.00,,2013-08-06 02:43:00,
2013-08-05 19:52:00,55.0,55.0,30.03,NNW,338,12.0,17.0,100,0.00,,,0.00,,2013-08-06 02:52:00,
2013-08-05 20:01:00,55.0,55.0,30.03,NNW,338,12.0,17.0,100,0.00,,,0.00,,2013-08-06 03:01:00,
2013-08-05 20:12:00,55.0,55.0,30.03,NNW,327,10.0,17.0,100,0.00,,,0.00,,2013-08-06 03:12:00,
2013-08-05 20:33:00,55.0,55.0,30.04,WNW,298,9.0,19.0,100,0.00,,,0.00,,2013-08-06 03:33:00,
2013-08-05 20:45:00,54.0,54.0,30.04,NW,312,10.0,14.0,100,0.00,,,0.00,,2013-08-06 03:45:00,
2013-08-05 20:52:00,54.0,54.0,30.04,NW,312,10.0,14.0,100,0.00,,,0.00,,2013-08-06 03:52:00,
2013-08-05 21:01:00,55.0,55.0,30.04,NNW,327,5.0,15.0,100,0.00,,,0.00,,2013-08-06 04:01:00,
2013-08-05 21:11:00,54.0,54.0,30.04,NW,306,9.0,14.0,100,0.00,,,0.00,,2013-08-06 04:11:00,
2013-08-05 21:32:00,54.0,54.0,30.05,NW,308,7.0,12.0,100,0.00,,,0.00,,2013-08-06 04:32:00,
2013-08-05 21:44:00,54.0,54.0,30.05,NW,312,8.0,11.0,100,0.00,,,0.00,,2013-08-06 04:44:00,
2013-08-05 21:53:00,54.0,54.0,30.05,NW,312,8.0,11.0,100,0.00,,,0.00,,2013-08-06 04:53:00,
2013-08-05 22:02:00,54.0,54.0,30.05,WNW,302,4.0,10.0,100,0.00,,,0.00,,2013-08-06 05:02:00,
2013-08-05 22:11:00,54.0,54.0,30.05,NNW,327,7.0,11.0,100,0.00,,,0.00,,2013-08-06 05:11:00,
2013-08-05 22:32:00,54.0,54.0,30.05,NW,306,5.0,8.0,100,0.00,,,0.00,,2013-08-06 05:32:00,
2013-08-05 22:43:00,53.0,53.0,30.05,WNW,300,6.0,11.0,100,0.00,,,0.00,,2013-08-06 05:43:00,
2013-08-05 22:53:00,53.0,53.0,30.05,WNW,298,5.0,11.0,100,0.00,,,0.00,,2013-08-06 05:53:00,
2013-08-05 23:01:00,53.0,53.0,30.05,WNW,298,5.0,11.0,100,0.00,,,0.00,,2013-08-06 06:01:00,
2013-08-05 23:11:00,53.0,53.0,30.05,NW,319,5.0,9.0,100,0.00,,,0.00,,2013-08-06 06:11:00,
2013-08-05 23:22:00,53.0,53.0,30.05,NW,319,5.0,9.0,100,0.00,,,0.00,,2013-08-06 06:22:00,
2013-08-05 23:32:00,53.0,53.0,30.05,WNW,294,4.0,9.0,100,0.00,,,0.00,,2013-08-06 06:32:00,
2013-08-05 23:43:00,53.0,53.0,30.05,NW,325,5.0,7.0,100,0.00,,,0.00,,2013-08-06 06:43:00,
2013-08-05 23:52:00,53.0,53.0,30.05,NW,325,5.0,7.0,100,0.00,,,0.00,,2013-08-06 06:52:00,